Time;durP1;ratioP1;P1;durP2;ratioP2;P2;SDS_P1;SDS_P2;PMS_P1;PMS_P2;Temp;Humidity;BMP_temperature;BMP_pressure;BME280_temperature;BME280_humidity;BME280_pressure;Samples;Min_cycle;Max_cycle;Signal;HPM_P1;HPM_P2
2023/08/07 00:01:40;;;;;;;0.70;0.60;;;;;;;;;;10368563;28;21307;-82
2023/08/07 00:06:46;;;;;;;1.10;0.60;;;;;;;;;;10370146;28;20058;-81
2023/08/07 00:11:50;;;;;;;1.87;0.60;;;;;;;;;;10367507;28;20049;-80
2023/08/07 00:16:50;;;;;;;1.48;0.60;;;;;;;;;;10366926;28;20045;-85
2023/08/07 00:21:51;;;;;;;1.43;0.80;;;;;;;;;;10363071;28;20477;-83
2023/08/07 00:26:52;;;;;;;0.88;0.77;;;;;;;;;;10370833;28;20095;-83
2023/08/07 00:31:54;;;;;;;1.27;0.70;;;;;;;;;;10350606;28;20432;-83
2023/08/07 00:36:57;;;;;;;1.27;0.60;;;;;;;;;;10366554;28;20450;-82
2023/08/07 00:41:57;;;;;;;0.80;0.70;;;;;;;;;;10335824;28;20056;-82
2023/08/07 00:46:58;;;;;;;0.98;0.60;;;;;;;;;;10361034;28;20391;-83
2023/08/07 00:51:59;;;;;;;1.70;0.70;;;;;;;;;;10349784;28;20045;-81
2023/08/07 00:57:05;;;;;;;0.70;0.70;;;;;;;;;;10373752;28;20158;-79
2023/08/07 01:02:06;;;;;;;1.05;0.95;;;;;;;;;;10357718;28;20136;-81
2023/08/07 01:07:10;;;;;;;1.95;0.65;;;;;;;;;;10368181;28;20049;-84
2023/08/07 01:12:16;;;;;;;1.45;0.70;;;;;;;;;;10340837;28;20037;-81
2023/08/07 01:17:18;;;;;;;1.58;0.80;;;;;;;;;;10387742;28;20030;-84
2023/08/07 01:22:19;;;;;;;1.65;0.60;;;;;;;;;;10386852;28;20133;-81
2023/08/07 01:27:28;;;;;;;1.27;0.90;;;;;;;;;;10362144;28;20045;-81
2023/08/07 01:32:34;;;;;;;2.58;1.33;;;;;;;;;;10363096;28;20055;-82
2023/08/07 01:37:36;;;;;;;4.07;1.30;;;;;;;;;;10362221;28;20037;-80
2023/08/07 01:42:37;;;;;;;1.37;0.90;;;;;;;;;;10371676;28;20172;-82
2023/08/07 01:47:39;;;;;;;1.85;1.15;;;;;;;;;;10367614;28;20046;-81
2023/08/07 01:52:39;;;;;;;1.40;0.70;;;;;;;;;;10351730;28;20053;-84
2023/08/07 01:57:40;;;;;;;1.00;0.90;;;;;;;;;;10352220;28;20413;-83
2023/08/07 02:02:41;;;;;;;2.28;0.85;;;;;;;;;;10349355;28;20053;-84
2023/08/07 02:07:42;;;;;;;1.17;0.80;;;;;;;;;;10369030;28;20050;-83
2023/08/07 02:12:42;;;;;;;1.98;1.00;;;;;;;;;;10365963;28;20636;-81
2023/08/07 02:17:43;;;;;;;1.15;0.90;;;;;;;;;;10366177;28;20045;-82
2023/08/07 02:22:43;;;;;;;1.57;1.00;;;;;;;;;;10365783;28;20053;-82
2023/08/07 02:27:43;;;;;;;1.03;0.80;;;;;;;;;;10357093;28;20793;-85
2023/08/07 02:32:44;;;;;;;1.92;0.82;;;;;;;;;;10369505;28;20053;-83
2023/08/07 02:37:44;;;;;;;1.58;1.30;;;;;;;;;;10347698;28;20042;-81
2023/08/07 02:42:45;;;;;;;1.83;0.90;;;;;;;;;;10367029;28;20069;-85
2023/08/07 02:47:45;;;;;;;2.63;1.00;;;;;;;;;;10391406;28;20030;-83
2023/08/07 02:52:46;;;;;;;1.93;1.00;;;;;;;;;;10363885;28;20046;-81
2023/08/07 02:57:46;;;;;;;1.13;1.03;;;;;;;;;;10369303;28;20053;-80
2023/08/07 03:02:46;;;;;;;3.73;0.93;;;;;;;;;;10362149;28;20510;-81
2023/08/07 03:07:47;;;;;;;2.13;1.30;;;;;;;;;;10367679;28;20826;-81
2023/08/07 03:12:47;;;;;;;3.27;1.40;;;;;;;;;;10365402;28;20766;-81
2023/08/07 03:17:47;;;;;;;2.47;1.20;;;;;;;;;;10355424;28;20076;-81
2023/08/07 03:22:48;;;;;;;2.65;1.20;;;;;;;;;;10349102;28;20209;-83
2023/08/07 03:27:49;;;;;;;2.58;1.50;;;;;;;;;;10334109;28;20707;-80
2023/08/07 03:32:49;;;;;;;1.83;1.40;;;;;;;;;;10367609;28;20065;-82
2023/08/07 03:37:52;;;;;;;2.13;1.60;;;;;;;;;;10345903;28;20137;-77
2023/08/07 03:42:52;;;;;;;3.42;1.98;;;;;;;;;;10366690;28;20753;-81
2023/08/07 03:47:53;;;;;;;2.23;1.77;;;;;;;;;;10349902;28;20057;-80
2023/08/07 03:52:54;;;;;;;2.17;1.70;;;;;;;;;;10350874;28;21057;-79
2023/08/07 03:57:55;;;;;;;3.53;2.10;;;;;;;;;;10348587;28;20049;-84
2023/08/07 04:02:56;;;;;;;4.40;1.77;;;;;;;;;;10364705;28;20058;-82
2023/08/07 04:07:56;;;;;;;2.40;2.00;;;;;;;;;;10365200;28;20314;-83
2023/08/07 04:12:57;;;;;;;3.03;1.92;;;;;;;;;;10336725;28;20430;-81
2023/08/07 04:17:59;;;;;;;2.42;1.88;;;;;;;;;;10361058;28;20026;-83
2023/08/07 04:23:01;;;;;;;3.00;2.28;;;;;;;;;;10383690;28;20271;-79
2023/08/07 04:28:01;;;;;;;4.30;2.22;;;;;;;;;;10360477;28;20173;-81
2023/08/07 04:33:02;;;;;;;3.72;2.30;;;;;;;;;;10359448;28;20113;-80
2023/08/07 04:38:03;;;;;;;4.32;2.67;;;;;;;;;;10358422;28;20058;-81
2023/08/07 04:43:03;;;;;;;4.03;2.50;;;;;;;;;;10345692;28;20105;-83
2023/08/07 04:48:03;;;;;;;3.87;2.37;;;;;;;;;;10355963;28;20046;-83
2023/08/07 04:53:05;;;;;;;3.95;2.60;;;;;;;;;;10359792;28;20379;-81
2023/08/07 04:58:05;;;;;;;6.70;3.00;;;;;;;;;;10365426;28;20131;-83
2023/08/07 05:03:06;;;;;;;3.97;3.03;;;;;;;;;;10355898;28;20312;-82
2023/08/07 05:08:06;;;;;;;5.70;3.00;;;;;;;;;;10356142;28;20296;-84
2023/08/07 05:13:06;;;;;;;8.03;2.80;;;;;;;;;;10346951;28;20394;-84
2023/08/07 05:18:08;;;;;;;7.13;3.00;;;;;;;;;;10340055;28;20050;-82
2023/08/07 05:23:10;;;;;;;6.70;3.03;;;;;;;;;;10359351;28;20054;-79
2023/08/07 05:28:10;;;;;;;5.63;2.90;;;;;;;;;;10346164;28;20092;-77
2023/08/07 05:33:11;;;;;;;6.60;3.33;;;;;;;;;;10342707;28;20057;-81
2023/08/07 05:38:12;;;;;;;7.70;3.30;;;;;;;;;;10367793;28;20046;-81
2023/08/07 05:43:13;;;;;;;6.90;3.22;;;;;;;;;;10368993;28;20315;-81
2023/08/07 05:48:13;;;;;;;6.32;3.20;;;;;;;;;;10385721;28;20108;-87
2023/08/07 05:53:14;;;;;;;4.97;3.25;;;;;;;;;;10385194;28;20470;-82
2023/08/07 05:58:14;;;;;;;6.00;2.87;;;;;;;;;;10378479;28;20049;-81
2023/08/07 06:03:14;;;;;;;6.28;3.40;;;;;;;;;;10359984;28;20061;-83
2023/08/07 06:08:15;;;;;;;5.53;2.80;;;;;;;;;;10371245;28;20046;-82
2023/08/07 06:13:16;;;;;;;4.47;2.65;;;;;;;;;;10369793;28;20143;-82
2023/08/07 06:18:16;;;;;;;4.30;2.50;;;;;;;;;;10369885;28;20073;-82
2023/08/07 06:23:17;;;;;;;4.78;2.85;;;;;;;;;;10368527;28;20308;-80
2023/08/07 06:28:19;;;;;;;4.20;3.20;;;;;;;;;;10367683;28;20042;-84
2023/08/07 06:33:22;;;;;;;4.18;2.75;;;;;;;;;;10365005;28;20367;-85
2023/08/07 06:38:22;;;;;;;4.55;2.72;;;;;;;;;;10343235;28;20726;-82
2023/08/07 06:43:23;;;;;;;5.05;3.25;;;;;;;;;;10365128;28;20054;-83
2023/08/07 06:48:24;;;;;;;3.97;2.75;;;;;;;;;;10347751;28;20100;-82
2023/08/07 06:53:25;;;;;;;4.80;3.17;;;;;;;;;;10353071;28;20053;-86
2023/08/07 06:58:25;;;;;;;3.73;2.63;;;;;;;;;;10365700;28;20285;-80
2023/08/07 07:03:26;;;;;;;6.88;3.05;;;;;;;;;;10381087;28;20316;-83
2023/08/07 07:08:26;;;;;;;7.40;3.03;;;;;;;;;;10366326;28;20708;-82
2023/08/07 07:13:27;;;;;;;4.38;2.70;;;;;;;;;;10364108;28;20096;-84
2023/08/07 07:18:28;;;;;;;3.47;2.67;;;;;;;;;;10366754;28;20042;-86
2023/08/07 07:23:28;;;;;;;3.83;2.90;;;;;;;;;;10365338;28;20308;-84
2023/08/07 07:28:28;;;;;;;4.15;2.40;;;;;;;;;;10369267;28;20050;-82
2023/08/07 07:33:30;;;;;;;5.78;3.08;;;;;;;;;;10360918;28;20520;-86
2023/08/07 07:38:30;;;;;;;3.55;2.40;;;;;;;;;;10364931;28;20546;-83
2023/08/07 07:43:31;;;;;;;5.00;2.78;;;;;;;;;;10364313;28;20077;-84
2023/08/07 07:48:32;;;;;;;4.20;2.72;;;;;;;;;;10369099;28;20046;-82
2023/08/07 07:53:32;;;;;;;7.00;3.97;;;;;;;;;;10350245;28;20112;-81
2023/08/07 07:58:34;;;;;;;4.17;3.00;;;;;;;;;;10368751;28;20041;-83
2023/08/07 08:03:36;;;;;;;6.07;3.22;;;;;;;;;;10371365;28;20375;-86
2023/08/07 08:08:37;;;;;;;4.22;3.08;;;;;;;;;;10362878;28;20053;-82
2023/08/07 08:13:41;;;;;;;4.27;3.00;;;;;;;;;;10358576;28;20042;-83
2023/08/07 08:18:41;;;;;;;;;;;;;;;;;;10352748;28;20391;-80
2023/08/07 08:23:42;;;;;;;5.73;3.60;;;;;;;;;;10354453;28;19925;-86
2023/08/07 08:28:43;;;;;;;6.20;3.63;;;;;;;;;;10362918;28;20112;-84
2023/08/07 08:33:44;;;;;;;4.50;3.65;;;;;;;;;;10360818;28;20045;-82
2023/08/07 08:38:48;;;;;;;4.97;3.53;;;;;;;;;;10355860;28;20038;-81
2023/08/07 08:43:49;;;;;;;8.48;3.22;;;;;;;;;;10363091;28;20450;-83
2023/08/07 08:48:54;;;;;;;6.25;3.33;;;;;;;;;;10347247;28;20419;-83
2023/08/07 08:53:56;;;;;;;6.30;3.92;;;;;;;;;;10363825;28;20048;-83
2023/08/07 08:58:58;;;;;;;6.00;3.13;;;;;;;;;;10369463;28;20180;-82
2023/08/07 09:04:01;;;;;;;5.18;3.35;;;;;;;;;;10361162;28;20915;-84
2023/08/07 09:09:03;;;;;;;4.53;3.17;;;;;;;;;;10373529;28;20536;-84
2023/08/07 09:14:09;;;;;;;6.05;3.30;;;;;;;;;;10376544;28;20129;-82
2023/08/07 09:19:12;;;;;;;4.75;3.40;;;;;;;;;;10350971;28;20152;-84
2023/08/07 09:24:19;;;;;;;5.68;3.30;;;;;;;;;;10421554;28;20061;-85
2023/08/07 09:29:24;;;;;;;4.47;3.35;;;;;;;;;;10411709;28;20065;-82
2023/08/07 09:34:26;;;;;;;4.35;3.15;;;;;;;;;;10364809;28;20078;-81
2023/08/07 09:39:27;;;;;;;6.18;2.90;;;;;;;;;;10352127;28;20057;-83
2023/08/07 09:44:37;;;;;;;5.13;2.60;;;;;;;;;;10369638;28;20773;-83
2023/08/07 09:49:38;;;;;;;5.55;2.78;;;;;;;;;;10341532;28;20049;-85
2023/08/07 09:54:38;;;;;;;6.80;2.90;;;;;;;;;;10357697;28;20033;-85
2023/08/07 09:59:40;;;;;;;3.47;2.65;;;;;;;;;;10360373;28;20065;-84
2023/08/07 10:04:41;;;;;;;3.42;2.70;;;;;;;;;;10374390;28;20164;-85
2023/08/07 10:09:42;;;;;;;2.95;2.40;;;;;;;;;;10380730;28;20046;-85
2023/08/07 10:14:42;;;;;;;3.55;3.03;;;;;;;;;;10352068;28;20060;-82
2023/08/07 10:19:44;;;;;;;4.15;2.65;;;;;;;;;;10345578;28;20088;-83
2023/08/07 10:24:47;;;;;;;4.10;3.00;;;;;;;;;;10378033;28;20088;-83
2023/08/07 10:29:48;;;;;;;;;;;;;;;;;;10368680;28;20038;-83
2023/08/07 10:34:51;;;;;;;5.47;2.50;;;;;;;;;;10369795;28;19925;-82
2023/08/07 10:40:01;;;;;;;3.45;1.90;;;;;;;;;;10383099;28;20096;-84
2023/08/07 10:45:01;;;;;;;5.68;2.70;;;;;;;;;;10375302;28;20572;-81
2023/08/07 10:50:03;;;;;;;3.53;2.60;;;;;;;;;;10392699;28;20132;-84
2023/08/07 10:55:12;;;;;;;3.30;2.40;;;;;;;;;;10360177;28;20383;-84
2023/08/07 11:00:13;;;;;;;4.07;2.38;;;;;;;;;;10375708;28;20045;-84
2023/08/07 11:05:16;;;;;;;4.03;2.67;;;;;;;;;;10369035;28;20073;-85
2023/08/07 11:10:19;;;;;;;4.88;3.60;;;;;;;;;;10381422;28;20507;-85
2023/08/07 11:15:19;;;;;;;4.47;2.80;;;;;;;;;;10363609;28;20042;-83
2023/08/07 11:20:22;;;;;;;2.70;2.35;;;;;;;;;;10368102;28;20045;-83
2023/08/07 11:25:26;;;;;;;3.38;2.85;;;;;;;;;;10389269;28;20607;-84
2023/08/07 11:30:27;;;;;;;4.05;2.28;;;;;;;;;;10411349;28;20025;-86
2023/08/07 11:35:33;;;;;;;5.20;2.70;;;;;;;;;;10393645;28;20045;-85
2023/08/07 11:40:38;;;;;;;5.40;2.50;;;;;;;;;;10385236;28;20046;-88
2023/08/07 11:45:38;;;;;;;4.10;2.75;;;;;;;;;;10384549;28;20107;-84
2023/08/07 11:50:39;;;;;;;3.13;2.10;;;;;;;;;;10400258;28;20068;-83
2023/08/07 11:55:55;;;;;;;3.95;2.38;;;;;;;;;;10397086;28;20041;-89
2023/08/07 12:00:56;;;;;;;2.60;1.90;;;;;;;;;;10389841;28;20070;-89
2023/08/07 12:05:59;;;;;;;2.72;2.00;;;;;;;;;;10347320;28;20053;-86
2023/08/07 12:11:04;;;;;;;3.63;2.20;;;;;;;;;;10384729;28;20041;-87
2023/08/07 12:16:05;;;;;;;3.60;2.10;;;;;;;;;;10352305;28;20068;-88
2023/08/07 12:21:07;;;;;;;3.70;2.08;;;;;;;;;;10395969;28;20077;-91
2023/08/07 12:26:07;;;;;;;4.35;2.03;;;;;;;;;;10398314;28;20050;-87
2023/08/07 12:31:17;;;;;;;3.47;2.30;;;;;;;;;;10369668;28;20410;-87
2023/08/07 12:36:18;;;;;;;2.00;1.80;;;;;;;;;;10384903;28;20075;-86
2023/08/07 12:41:24;;;;;;;2.10;1.70;;;;;;;;;;10370721;28;20048;-89
2023/08/07 12:46:26;;;;;;;3.08;1.90;;;;;;;;;;10381900;28;20577;-89
2023/08/07 12:51:36;;;;;;;3.80;2.10;;;;;;;;;;10405183;28;20112;-89
2023/08/07 12:56:37;;;;;;;3.08;1.80;;;;;;;;;;10381889;28;20042;-86
2023/08/07 13:01:37;;;;;;;4.85;2.20;;;;;;;;;;10401464;28;20056;-89
2023/08/07 13:06:39;;;;;;;2.50;1.80;;;;;;;;;;10407814;28;20104;-89
2023/08/07 13:11:41;;;;;;;3.60;2.50;;;;;;;;;;10404391;28;20071;-88
2023/08/07 13:16:43;;;;;;;2.55;1.88;;;;;;;;;;10381806;28;20042;-88
2023/08/07 13:21:50;;;;;;;2.47;2.00;;;;;;;;;;10390824;28;20048;-87
2023/08/07 13:26:51;;;;;;;2.85;2.00;;;;;;;;;;10357358;28;20053;-86
2023/08/07 13:31:53;;;;;;;4.18;1.88;;;;;;;;;;10394717;28;20046;-86
2023/08/07 13:36:56;;;;;;;3.28;1.70;;;;;;;;;;10395353;28;20084;-88
2023/08/07 13:41:56;;;;;;;3.65;2.17;;;;;;;;;;10367913;28;20050;-88
2023/08/07 13:46:57;;;;;;;4.87;2.60;;;;;;;;;;10370562;28;20054;-85
2023/08/07 13:52:00;;;;;;;;;;;;;;;;;;10376597;28;20358;-85
2023/08/07 13:57:00;;;;;;;2.80;1.75;;;;;;;;;;10379132;28;19917;-88
2023/08/07 14:02:01;;;;;;;2.00;1.80;;;;;;;;;;10386183;28;20049;-85
2023/08/07 14:07:04;;;;;;;3.35;2.22;;;;;;;;;;10391466;28;20137;-84
2023/08/07 14:12:05;;;;;;;3.05;1.98;;;;;;;;;;10395955;28;20345;-87
2023/08/07 14:17:06;;;;;;;4.55;2.30;;;;;;;;;;10448076;22;20046;-90
2023/08/07 14:22:38;;;;;;;5.13;2.30;;;;;;;;;;10366899;28;20077;-87
2023/08/07 14:27:41;;;;;;;2.95;2.22;;;;;;;;;;10355181;28;20046;-90
2023/08/07 14:32:43;;;;;;;4.07;2.42;;;;;;;;;;10357138;28;20038;-86
2023/08/07 14:37:44;;;;;;;4.53;2.30;;;;;;;;;;10353587;28;20042;-87
2023/08/07 14:42:47;;;;;;;2.60;2.08;;;;;;;;;;10324606;28;20050;-85
2023/08/07 14:47:57;;;;;;;3.30;2.33;;;;;;;;;;10312584;28;20065;-86
2023/08/07 14:53:11;;;;;;;3.80;2.20;;;;;;;;;;10344869;28;20071;-86
2023/08/07 14:58:15;;;;;;;2.90;2.30;;;;;;;;;;10344082;28;20850;-84
2023/08/07 15:03:17;;;;;;;4.55;2.50;;;;;;;;;;10359966;28;20054;-87
2023/08/07 15:08:21;;;;;;;3.13;2.30;;;;;;;;;;10282021;28;20079;-85
2023/08/07 15:13:22;;;;;;;5.03;2.85;;;;;;;;;;10301707;28;21483;-87
2023/08/07 15:18:23;;;;;;;3.80;2.17;;;;;;;;;;10304496;28;20132;-83
2023/08/07 15:23:24;;;;;;;4.88;2.72;;;;;;;;;;10291050;28;21008;-87
2023/08/07 15:28:27;;;;;;;5.60;2.38;;;;;;;;;;10297505;28;20046;-89
2023/08/07 15:33:47;;;;;;;4.68;2.97;;;;;;;;;;10321634;28;20627;-89
2023/08/07 15:38:58;;;;;;;2.50;2.30;;;;;;;;;;10304652;28;20054;-86
2023/08/07 15:44:14;;;;;;;4.80;2.50;;;;;;;;;;10298752;28;20077;-87
2023/08/07 15:49:27;;;;;;;3.38;2.20;;;;;;;;;;10455064;22;21328;-89
2023/08/07 15:54:28;;;;;;;3.42;2.10;;;;;;;;;;10324155;28;20508;-88
2023/08/07 15:59:35;;;;;;;4.80;2.05;;;;;;;;;;10293955;28;20077;-87
2023/08/07 16:04:37;;;;;;;4.20;2.33;;;;;;;;;;10311071;28;20058;-86
2023/08/07 16:09:45;;;;;;;4.87;2.30;;;;;;;;;;10317210;28;20114;-87
2023/08/07 16:14:48;;;;;;;4.32;2.22;;;;;;;;;;10291790;28;20038;-89
2023/08/07 16:20:04;;;;;;;2.35;2.10;;;;;;;;;;10304140;28;20042;-88
2023/08/07 16:25:15;;;;;;;4.35;2.55;;;;;;;;;;10298841;28;20042;-87
2023/08/07 16:30:42;;;;;;;4.85;1.98;;;;;;;;;;10296070;28;20821;-85
2023/08/07 16:36:08;;;;;;;5.13;2.30;;;;;;;;;;10337453;28;20496;-88
2023/08/07 16:41:54;;;;;;;3.30;1.90;;;;;;;;;;10375171;28;20037;-87
2023/08/07 16:46:57;;;;;;;4.60;1.90;;;;;;;;;;10387330;28;20046;-85
2023/08/07 16:52:04;;;;;;;3.55;2.30;;;;;;;;;;10372665;28;20143;-87
2023/08/07 16:57:07;;;;;;;3.65;2.00;;;;;;;;;;10348691;28;20069;-90
2023/08/07 17:02:28;;;;;;;3.03;1.90;;;;;;;;;;10317169;28;20049;-85
2023/08/07 17:07:34;;;;;;;3.72;2.10;;;;;;;;;;10344260;28;20042;-88
2023/08/07 17:12:47;;;;;;;3.70;2.00;;;;;;;;;;10338277;28;20506;-89
2023/08/07 17:17:48;;;;;;;3.17;2.10;;;;;;;;;;10346419;28;20050;-88
2023/08/07 17:22:55;;;;;;;4.00;2.15;;;;;;;;;;10328522;28;20038;-89
2023/08/07 17:28:03;;;;;;;2.33;1.80;;;;;;;;;;10328991;28;20137;-87
2023/08/07 17:33:05;;;;;;;4.95;1.95;;;;;;;;;;10349508;28;20053;-87
2023/08/07 17:38:12;;;;;;;3.35;2.05;;;;;;;;;;10364839;28;20026;-87
2023/08/07 17:43:14;;;;;;;4.45;2.13;;;;;;;;;;10351298;28;20080;-87
2023/08/07 17:48:19;;;;;;;4.47;2.22;;;;;;;;;;10370207;28;20770;-87
2023/08/07 17:53:34;;;;;;;3.25;2.20;;;;;;;;;;10369823;28;20049;-86
2023/08/07 17:58:35;;;;;;;3.10;1.95;;;;;;;;;;10329631;28;20054;-87
2023/08/07 18:03:36;;;;;;;4.32;2.30;;;;;;;;;;10325115;28;20050;-85
2023/08/07 18:08:38;;;;;;;4.40;2.50;;;;;;;;;;10341997;28;20133;-87
2023/08/07 18:13:43;;;;;;;5.35;2.40;;;;;;;;;;10342844;28;20474;-89
2023/08/07 18:18:45;;;;;;;3.20;2.47;;;;;;;;;;10303788;28;20489;-85
2023/08/07 18:23:47;;;;;;;3.58;2.20;;;;;;;;;;10317448;28;20085;-87
2023/08/07 18:28:48;;;;;;;3.67;2.30;;;;;;;;;;10324320;28;20558;-84
2023/08/07 18:33:52;;;;;;;4.22;2.25;;;;;;;;;;10334009;28;20038;-87
2023/08/07 18:38:52;;;;;;;3.40;2.40;;;;;;;;;;10337493;28;20038;-85
2023/08/07 18:43:54;;;;;;;4.07;2.03;;;;;;;;;;10309171;28;20050;-84
2023/08/07 18:48:54;;;;;;;5.32;2.20;;;;;;;;;;10333700;28;20088;-84
2023/08/07 18:53:55;;;;;;;2.88;2.00;;;;;;;;;;10314387;28;20668;-86
2023/08/07 18:58:57;;;;;;;2.28;1.95;;;;;;;;;;10319625;28;20434;-86
2023/08/07 19:04:02;;;;;;;3.63;2.55;;;;;;;;;;10377828;28;20055;-87
2023/08/07 19:09:03;;;;;;;3.97;2.30;;;;;;;;;;10393091;28;20049;-88
2023/08/07 19:14:05;;;;;;;3.63;2.63;;;;;;;;;;10344460;28;20119;-87
2023/08/07 19:19:09;;;;;;;4.28;2.60;;;;;;;;;;10335517;28;20482;-85
2023/08/07 19:24:12;;;;;;;3.53;2.70;;;;;;;;;;10335148;28;20054;-86
2023/08/07 19:29:19;;;;;;;3.28;2.50;;;;;;;;;;10337470;28;20054;-85
2023/08/07 19:34:21;;;;;;;4.90;2.83;;;;;;;;;;10318560;28;20050;-86
2023/08/07 19:39:23;;;;;;;5.30;2.90;;;;;;;;;;10331689;28;20046;-85
2023/08/07 19:44:30;;;;;;;3.50;2.58;;;;;;;;;;10314718;28;20141;-85
2023/08/07 19:49:33;;;;;;;6.43;3.05;;;;;;;;;;10326604;28;20057;-85
2023/08/07 19:54:34;;;;;;;4.57;2.75;;;;;;;;;;10330209;28;20133;-85
2023/08/07 19:59:36;;;;;;;4.63;2.60;;;;;;;;;;10347772;28;20077;-85
2023/08/07 20:04:38;;;;;;;3.37;2.43;;;;;;;;;;10328776;28;20189;-87
2023/08/07 20:09:41;;;;;;;4.30;2.42;;;;;;;;;;10361447;28;20062;-86
2023/08/07 20:14:42;;;;;;;3.75;1.80;;;;;;;;;;10344681;28;20077;-88
2023/08/07 20:19:46;;;;;;;3.40;2.13;;;;;;;;;;10330019;28;20052;-90
2023/08/07 20:24:48;;;;;;;2.08;1.88;;;;;;;;;;10345321;28;20551;-87
2023/08/07 20:29:55;;;;;;;3.07;2.03;;;;;;;;;;10337137;28;20042;-87
2023/08/07 20:34:56;;;;;;;2.88;2.00;;;;;;;;;;10338914;28;20364;-89
2023/08/07 20:39:58;;;;;;;3.40;2.10;;;;;;;;;;10325052;28;20628;-89
2023/08/07 20:45:02;;;;;;;3.80;2.22;;;;;;;;;;10332858;28;20328;-86
2023/08/07 20:50:24;;;;;;;3.38;2.75;;;;;;;;;;10310917;28;20054;-87
2023/08/07 20:55:25;;;;;;;4.18;2.80;;;;;;;;;;10324260;28;20066;-87
2023/08/07 21:00:27;;;;;;;4.03;2.90;;;;;;;;;;10310309;28;20141;-86
2023/08/07 21:05:32;;;;;;;3.13;2.70;;;;;;;;;;10310350;28;20069;-86
2023/08/07 21:10:39;;;;;;;4.13;2.70;;;;;;;;;;10338517;28;20085;-85
2023/08/07 21:15:46;;;;;;;4.85;2.97;;;;;;;;;;10340304;28;20083;-89
2023/08/07 21:20:47;;;;;;;3.88;2.65;;;;;;;;;;10338981;28;20116;-85
2023/08/07 21:25:51;;;;;;;4.45;3.35;;;;;;;;;;10354547;28;20057;-88
2023/08/07 21:30:54;;;;;;;3.13;2.67;;;;;;;;;;10391736;28;20057;-84
2023/08/07 21:35:56;;;;;;;5.28;3.40;;;;;;;;;;10384943;28;20054;-84
2023/08/07 21:40:57;;;;;;;4.78;3.45;;;;;;;;;;10346781;28;20135;-88
2023/08/07 21:46:01;;;;;;;6.65;3.40;;;;;;;;;;10347230;28;20721;-88
2023/08/07 21:51:05;;;;;;;6.10;3.40;;;;;;;;;;10348374;28;20050;-85
2023/08/07 21:56:06;;;;;;;9.90;5.70;;;;;;;;;;10344471;28;20192;-86
2023/08/07 22:01:21;;;;;;;5.78;3.92;;;;;;;;;;10344532;28;20061;-86
2023/08/07 22:06:22;;;;;;;6.82;4.30;;;;;;;;;;10346172;28;20049;-84
2023/08/07 22:11:22;;;;;;;5.50;3.97;;;;;;;;;;10349214;28;20570;-84
2023/08/07 22:16:23;;;;;;;6.93;4.20;;;;;;;;;;10363890;28;20101;-85
2023/08/07 22:21:28;;;;;;;6.30;3.78;;;;;;;;;;10336878;28;20454;-88
2023/08/07 22:26:30;;;;;;;5.82;3.90;;;;;;;;;;10325969;28;20129;-85
2023/08/07 22:31:41;;;;;;;6.03;3.88;;;;;;;;;;10316181;28;20053;-86
2023/08/07 22:36:45;;;;;;;8.90;3.80;;;;;;;;;;10335383;28;20142;-85
2023/08/07 22:41:45;;;;;;;5.32;4.20;;;;;;;;;;10338885;28;20042;-86
2023/08/07 22:47:13;;;;;;;6.60;3.90;;;;;;;;;;10327125;28;20191;-85
2023/08/07 22:52:15;;;;;;;5.72;3.70;;;;;;;;;;10343309;28;21037;-87
2023/08/07 22:57:16;;;;;;;5.43;3.83;;;;;;;;;;10315142;28;20519;-86
2023/08/07 23:02:18;;;;;;;5.82;4.28;;;;;;;;;;10312965;28;20050;-88
2023/08/07 23:07:23;;;;;;;7.45;5.22;;;;;;;;;;10321544;28;20054;-86
2023/08/07 23:12:27;;;;;;;6.50;4.28;;;;;;;;;;10329547;28;20058;-84
2023/08/07 23:17:29;;;;;;;9.10;5.07;;;;;;;;;;10328665;28;20053;-85
2023/08/07 23:22:30;;;;;;;7.90;4.63;;;;;;;;;;10326933;28;20055;-88
2023/08/07 23:27:32;;;;;;;7.80;5.40;;;;;;;;;;10338251;28;20759;-85
2023/08/07 23:32:41;;;;;;;6.13;4.72;;;;;;;;;;10328371;28;20297;-85
2023/08/07 23:37:42;;;;;;;7.75;5.18;;;;;;;;;;10318936;28;20530;-84
2023/08/07 23:42:44;;;;;;;9.30;5.35;;;;;;;;;;10332467;28;20105;-86
2023/08/07 23:47:45;;;;;;;5.57;4.72;;;;;;;;;;10338916;28;20088;-85
2023/08/07 23:52:45;;;;;;;7.73;5.80;;;;;;;;;;10365503;28;20070;-87
2023/08/07 23:57:53;;;;;;;;;;;;;;;;;;10356316;28;20026;-85
